sensor_id;sensor_type;location;lat;lon;timestamp;P1;durP1;ratioP1;P2;durP2;ratioP2
1725;SDS011;41776;48.260;8.928;2023-04-25T00:01:28;5.20;;;1.90;;
1725;SDS011;41776;48.260;8.928;2023-04-25T00:03:54;3.33;;;2.27;;
1725;SDS011;41776;48.260;8.928;2023-04-25T00:06:22;3.40;;;1.80;;
1725;SDS011;41776;48.260;8.928;2023-04-25T00:08:51;7.83;;;2.30;;
1725;SDS011;41776;48.260;8.928;2023-04-25T00:11:17;9.63;;;2.33;;
1725;SDS011;41776;48.260;8.928;2023-04-25T00:13:44;5.40;;;2.00;;
1725;SDS011;41776;48.260;8.928;2023-04-25T00:16:11;3.53;;;2.07;;
1725;SDS011;41776;48.260;8.928;2023-04-25T00:18:39;6.57;;;2.13;;
1725;SDS011;41776;48.260;8.928;2023-04-25T00:21:06;8.23;;;2.37;;
1725;SDS011;41776;48.260;8.928;2023-04-25T00:23:32;7.07;;;2.40;;
1725;SDS011;41776;48.260;8.928;2023-04-25T00:26:01;8.10;;;2.43;;
1725;SDS011;41776;48.260;8.928;2023-04-25T00:28:28;5.93;;;2.23;;
1725;SDS011;41776;48.260;8.928;2023-04-25T00:30:54;8.40;;;2.30;;
1725;SDS011;41776;48.260;8.928;2023-04-25T00:33:21;3.10;;;2.17;;
1725;SDS011;41776;48.260;8.928;2023-04-25T00:35:49;6.00;;;2.53;;
1725;SDS011;41776;48.260;8.928;2023-04-25T00:38:15;7.63;;;2.33;;
1725;SDS011;41776;48.260;8.928;2023-04-25T00:40:41;4.97;;;2.70;;
1725;SDS011;41776;48.260;8.928;2023-04-25T00:43:08;7.17;;;2.10;;
1725;SDS011;41776;48.260;8.928;2023-04-25T00:45:35;5.80;;;2.03;;
1725;SDS011;41776;48.260;8.928;2023-04-25T00:48:05;4.00;;;2.22;;
1725;SDS011;41776;48.260;8.928;2023-04-25T00:50:32;6.93;;;2.33;;
1725;SDS011;41776;48.260;8.928;2023-04-25T00:53:00;8.33;;;1.97;;
1725;SDS011;41776;48.260;8.928;2023-04-25T00:55:28;5.70;;;1.87;;
1725;SDS011;41776;48.260;8.928;2023-04-25T00:57:56;6.63;;;2.37;;
1725;SDS011;41776;48.260;8.928;2023-04-25T01:00:22;5.33;;;2.13;;
1725;SDS011;41776;48.260;8.928;2023-04-25T01:02:49;4.27;;;2.10;;
1725;SDS011;41776;48.260;8.928;2023-04-25T01:05:16;3.87;;;2.07;;
1725;SDS011;41776;48.260;8.928;2023-04-25T01:07:43;3.47;;;1.97;;
1725;SDS011;41776;48.260;8.928;2023-04-25T01:10:12;6.30;;;2.20;;
1725;SDS011;41776;48.260;8.928;2023-04-25T01:12:39;5.50;;;2.10;;
1725;SDS011;41776;48.260;8.928;2023-04-25T01:15:06;4.37;;;2.00;;
1725;SDS011;41776;48.260;8.928;2023-04-25T01:17:33;3.23;;;2.10;;
1725;SDS011;41776;48.260;8.928;2023-04-25T01:20:01;5.37;;;2.30;;
1725;SDS011;41776;48.260;8.928;2023-04-25T01:22:31;6.67;;;2.10;;
1725;SDS011;41776;48.260;8.928;2023-04-25T01:24:57;7.20;;;2.70;;
1725;SDS011;41776;48.260;8.928;2023-04-25T01:27:24;4.80;;;2.70;;
1725;SDS011;41776;48.260;8.928;2023-04-25T01:29:51;7.30;;;2.33;;
1725;SDS011;41776;48.260;8.928;2023-04-25T01:32:19;6.60;;;2.77;;
1725;SDS011;41776;48.260;8.928;2023-04-25T01:34:47;8.57;;;2.70;;
1725;SDS011;41776;48.260;8.928;2023-04-25T01:37:14;7.20;;;2.70;;
1725;SDS011;41776;48.260;8.928;2023-04-25T01:39:42;7.63;;;3.23;;
1725;SDS011;41776;48.260;8.928;2023-04-25T01:42:08;5.80;;;2.87;;
1725;SDS011;41776;48.260;8.928;2023-04-25T01:44:35;7.17;;;3.17;;
1725;SDS011;41776;48.260;8.928;2023-04-25T01:47:01;15.20;;;3.50;;
1725;SDS011;41776;48.260;8.928;2023-04-25T01:49:28;7.87;;;3.10;;
1725;SDS011;41776;48.260;8.928;2023-04-25T01:51:54;8.83;;;3.37;;
1725;SDS011;41776;48.260;8.928;2023-04-25T01:54:21;9.57;;;3.17;;
1725;SDS011;41776;48.260;8.928;2023-04-25T01:56:51;14.00;;;3.67;;
1725;SDS011;41776;48.260;8.928;2023-04-25T01:59:18;9.30;;;3.70;;
1725;SDS011;41776;48.260;8.928;2023-04-25T02:01:44;9.67;;;3.80;;
1725;SDS011;41776;48.260;8.928;2023-04-25T02:04:11;6.67;;;3.13;;
1725;SDS011;41776;48.260;8.928;2023-04-25T02:06:37;12.07;;;3.73;;
1725;SDS011;41776;48.260;8.928;2023-04-25T02:09:04;10.80;;;3.30;;
1725;SDS011;41776;48.260;8.928;2023-04-25T02:11:30;8.97;;;3.27;;
1725;SDS011;41776;48.260;8.928;2023-04-25T02:13:58;7.37;;;3.70;;
1725;SDS011;41776;48.260;8.928;2023-04-25T02:16:24;9.43;;;3.77;;
1725;SDS011;41776;48.260;8.928;2023-04-25T02:18:51;12.00;;;4.27;;
1725;SDS011;41776;48.260;8.928;2023-04-25T02:21:19;7.30;;;3.57;;
1725;SDS011;41776;48.260;8.928;2023-04-25T02:23:45;7.80;;;3.50;;
1725;SDS011;41776;48.260;8.928;2023-04-25T02:26:13;9.07;;;3.80;;
1725;SDS011;41776;48.260;8.928;2023-04-25T02:28:40;7.77;;;3.53;;
1725;SDS011;41776;48.260;8.928;2023-04-25T02:31:08;12.47;;;3.27;;
1725;SDS011;41776;48.260;8.928;2023-04-25T02:33:34;5.23;;;2.53;;
1725;SDS011;41776;48.260;8.928;2023-04-25T02:36:00;3.53;;;2.60;;
1725;SDS011;41776;48.260;8.928;2023-04-25T02:38:27;7.20;;;3.10;;
1725;SDS011;41776;48.260;8.928;2023-04-25T02:40:54;8.53;;;3.50;;
1725;SDS011;41776;48.260;8.928;2023-04-25T02:43:20;5.13;;;2.83;;
1725;SDS011;41776;48.260;8.928;2023-04-25T02:45:47;6.83;;;3.00;;
1725;SDS011;41776;48.260;8.928;2023-04-25T02:48:15;8.50;;;3.03;;
1725;SDS011;41776;48.260;8.928;2023-04-25T02:50:42;8.13;;;3.20;;
1725;SDS011;41776;48.260;8.928;2023-04-25T02:53:09;7.80;;;3.23;;
1725;SDS011;41776;48.260;8.928;2023-04-25T02:55:35;11.23;;;3.40;;
1725;SDS011;41776;48.260;8.928;2023-04-25T02:58:02;6.27;;;3.20;;
1725;SDS011;41776;48.260;8.928;2023-04-25T03:00:29;7.57;;;3.80;;
1725;SDS011;41776;48.260;8.928;2023-04-25T03:02:55;7.17;;;4.00;;
1725;SDS011;41776;48.260;8.928;2023-04-25T03:05:23;10.47;;;3.67;;
1725;SDS011;41776;48.260;8.928;2023-04-25T03:07:50;8.03;;;3.30;;
1725;SDS011;41776;48.260;8.928;2023-04-25T03:10:16;5.27;;;3.20;;
1725;SDS011;41776;48.260;8.928;2023-04-25T03:12:42;7.70;;;3.77;;
1725;SDS011;41776;48.260;8.928;2023-04-25T03:15:09;6.17;;;3.50;;
1725;SDS011;41776;48.260;8.928;2023-04-25T03:17:36;8.33;;;3.30;;
1725;SDS011;41776;48.260;8.928;2023-04-25T03:20:03;6.37;;;3.47;;
1725;SDS011;41776;48.260;8.928;2023-04-25T03:22:31;7.03;;;3.80;;
1725;SDS011;41776;48.260;8.928;2023-04-25T03:24:58;6.67;;;3.67;;
1725;SDS011;41776;48.260;8.928;2023-04-25T03:27:24;9.30;;;4.30;;
1725;SDS011;41776;48.260;8.928;2023-04-25T03:29:51;11.23;;;3.53;;
1725;SDS011;41776;48.260;8.928;2023-04-25T03:32:17;9.73;;;3.53;;
1725;SDS011;41776;48.260;8.928;2023-04-25T03:34:43;7.10;;;3.10;;
1725;SDS011;41776;48.260;8.928;2023-04-25T03:37:10;4.77;;;3.13;;
1725;SDS011;41776;48.260;8.928;2023-04-25T03:39:38;12.00;;;3.60;;
1725;SDS011;41776;48.260;8.928;2023-04-25T03:42:04;6.97;;;3.27;;
1725;SDS011;41776;48.260;8.928;2023-04-25T03:44:31;9.00;;;3.70;;
1725;SDS011;41776;48.260;8.928;2023-04-25T03:46:57;13.73;;;3.93;;
1725;SDS011;41776;48.260;8.928;2023-04-25T03:49:24;8.93;;;3.90;;
1725;SDS011;41776;48.260;8.928;2023-04-25T03:51:50;4.50;;;3.37;;
1725;SDS011;41776;48.260;8.928;2023-04-25T03:54:17;11.13;;;3.60;;
1725;SDS011;41776;48.260;8.928;2023-04-25T03:56:45;11.40;;;3.93;;
1725;SDS011;41776;48.260;8.928;2023-04-25T03:59:11;6.30;;;3.60;;
1725;SDS011;41776;48.260;8.928;2023-04-25T04:01:37;12.13;;;4.13;;
1725;SDS011;41776;48.260;8.928;2023-04-25T04:04:04;11.73;;;3.70;;
1725;SDS011;41776;48.260;8.928;2023-04-25T04:06:31;7.60;;;4.20;;
1725;SDS011;41776;48.260;8.928;2023-04-25T04:08:58;6.67;;;3.83;;
1725;SDS011;41776;48.260;8.928;2023-04-25T04:11:25;15.70;;;3.93;;
1725;SDS011;41776;48.260;8.928;2023-04-25T04:13:53;7.90;;;4.20;;
1725;SDS011;41776;48.260;8.928;2023-04-25T04:16:19;8.23;;;4.20;;
1725;SDS011;41776;48.260;8.928;2023-04-25T04:18:46;6.77;;;3.80;;
1725;SDS011;41776;48.260;8.928;2023-04-25T04:21:12;9.40;;;3.83;;
1725;SDS011;41776;48.260;8.928;2023-04-25T04:23:39;7.30;;;3.73;;
1725;SDS011;41776;48.260;8.928;2023-04-25T04:26:06;8.10;;;4.87;;
1725;SDS011;41776;48.260;8.928;2023-04-25T04:28:33;8.93;;;4.20;;
1725;SDS011;41776;48.260;8.928;2023-04-25T04:31:02;13.73;;;5.03;;
1725;SDS011;41776;48.260;8.928;2023-04-25T04:33:28;13.13;;;4.43;;
1725;SDS011;41776;48.260;8.928;2023-04-25T04:35:55;11.20;;;4.57;;
1725;SDS011;41776;48.260;8.928;2023-04-25T04:38:22;14.37;;;5.03;;
1725;SDS011;41776;48.260;8.928;2023-04-25T04:40:48;14.13;;;5.07;;
1725;SDS011;41776;48.260;8.928;2023-04-25T04:43:15;11.73;;;5.20;;
1725;SDS011;41776;48.260;8.928;2023-04-25T04:45:42;11.57;;;4.87;;
1725;SDS011;41776;48.260;8.928;2023-04-25T04:48:10;9.00;;;4.93;;
1725;SDS011;41776;48.260;8.928;2023-04-25T04:50:39;8.47;;;4.60;;
1725;SDS011;41776;48.260;8.928;2023-04-25T04:53:06;9.70;;;4.30;;
1725;SDS011;41776;48.260;8.928;2023-04-25T04:55:33;8.63;;;4.53;;
1725;SDS011;41776;48.260;8.928;2023-04-25T04:57:59;10.60;;;4.47;;
1725;SDS011;41776;48.260;8.928;2023-04-25T05:00:26;10.33;;;4.87;;
1725;SDS011;41776;48.260;8.928;2023-04-25T05:02:54;6.40;;;4.07;;
1725;SDS011;41776;48.260;8.928;2023-04-25T05:05:21;5.67;;;3.67;;
1725;SDS011;41776;48.260;8.928;2023-04-25T05:07:48;7.10;;;3.47;;
1725;SDS011;41776;48.260;8.928;2023-04-25T05:10:14;10.07;;;4.33;;
1725;SDS011;41776;48.260;8.928;2023-04-25T05:12:41;11.43;;;4.10;;
1725;SDS011;41776;48.260;8.928;2023-04-25T05:15:07;10.73;;;3.80;;
1725;SDS011;41776;48.260;8.928;2023-04-25T05:17:34;7.80;;;3.57;;
1725;SDS011;41776;48.260;8.928;2023-04-25T05:20:01;9.07;;;3.80;;
1725;SDS011;41776;48.260;8.928;2023-04-25T05:22:29;12.60;;;3.93;;
1725;SDS011;41776;48.260;8.928;2023-04-25T05:24:55;10.30;;;4.40;;
1725;SDS011;41776;48.260;8.928;2023-04-25T05:27:22;7.93;;;4.10;;
1725;SDS011;41776;48.260;8.928;2023-04-25T05:29:48;7.00;;;3.87;;
1725;SDS011;41776;48.260;8.928;2023-04-25T05:32:15;7.73;;;3.87;;
1725;SDS011;41776;48.260;8.928;2023-04-25T05:34:41;6.73;;;3.37;;
1725;SDS011;41776;48.260;8.928;2023-04-25T05:37:08;10.17;;;3.20;;
1725;SDS011;41776;48.260;8.928;2023-04-25T05:39:36;8.83;;;3.00;;
1725;SDS011;41776;48.260;8.928;2023-04-25T05:42:02;8.40;;;3.43;;
1725;SDS011;41776;48.260;8.928;2023-04-25T05:44:29;7.97;;;3.37;;
1725;SDS011;41776;48.260;8.928;2023-04-25T05:46:56;6.47;;;3.63;;
1725;SDS011;41776;48.260;8.928;2023-04-25T05:49:22;5.80;;;3.30;;
1725;SDS011;41776;48.260;8.928;2023-04-25T05:51:49;7.70;;;2.90;;
1725;SDS011;41776;48.260;8.928;2023-04-25T05:54:15;12.63;;;3.10;;
1725;SDS011;41776;48.260;8.928;2023-04-25T05:56:43;3.87;;;2.43;;
1725;SDS011;41776;48.260;8.928;2023-04-25T05:59:10;8.27;;;2.50;;
1725;SDS011;41776;48.260;8.928;2023-04-25T06:01:36;5.03;;;2.43;;
1725;SDS011;41776;48.260;8.928;2023-04-25T06:04:03;4.90;;;2.53;;
1725;SDS011;41776;48.260;8.928;2023-04-25T06:06:29;6.73;;;2.70;;
1725;SDS011;41776;48.260;8.928;2023-04-25T06:08:56;6.43;;;2.80;;
1725;SDS011;41776;48.260;8.928;2023-04-25T06:11:23;9.67;;;2.30;;
1725;SDS011;41776;48.260;8.928;2023-04-25T06:13:51;8.97;;;2.93;;
1725;SDS011;41776;48.260;8.928;2023-04-25T06:16:17;6.23;;;3.07;;
1725;SDS011;41776;48.260;8.928;2023-04-25T06:18:43;4.90;;;2.60;;
1725;SDS011;41776;48.260;8.928;2023-04-25T06:21:10;4.47;;;2.20;;
1725;SDS011;41776;48.260;8.928;2023-04-25T06:23:36;3.03;;;2.20;;
1725;SDS011;41776;48.260;8.928;2023-04-25T06:26:03;4.37;;;2.23;;
1725;SDS011;41776;48.260;8.928;2023-04-25T06:28:29;7.03;;;2.10;;
1725;SDS011;41776;48.260;8.928;2023-04-25T06:30:57;7.27;;;2.20;;
1725;SDS011;41776;48.260;8.928;2023-04-25T06:33:24;2.40;;;1.70;;
1725;SDS011;41776;48.260;8.928;2023-04-25T06:35:51;8.47;;;2.53;;
1725;SDS011;41776;48.260;8.928;2023-04-25T06:38:18;3.43;;;2.40;;
1725;SDS011;41776;48.260;8.928;2023-04-25T06:40:45;3.97;;;1.77;;
1725;SDS011;41776;48.260;8.928;2023-04-25T06:43:11;8.60;;;3.07;;
1725;SDS011;41776;48.260;8.928;2023-04-25T06:45:38;7.17;;;2.10;;
1725;SDS011;41776;48.260;8.928;2023-04-25T06:48:06;5.50;;;2.40;;
1725;SDS011;41776;48.260;8.928;2023-04-25T06:50:33;8.93;;;2.10;;
1725;SDS011;41776;48.260;8.928;2023-04-25T06:52:59;4.13;;;2.17;;
1725;SDS011;41776;48.260;8.928;2023-04-25T06:55:26;3.83;;;2.13;;
1725;SDS011;41776;48.260;8.928;2023-04-25T06:57:53;5.40;;;2.10;;
1725;SDS011;41776;48.260;8.928;2023-04-25T07:00:20;4.87;;;2.17;;
1725;SDS011;41776;48.260;8.928;2023-04-25T07:02:47;4.40;;;2.10;;
1725;SDS011;41776;48.260;8.928;2023-04-25T07:05:14;3.80;;;2.17;;
1725;SDS011;41776;48.260;8.928;2023-04-25T07:07:41;4.63;;;2.00;;
1725;SDS011;41776;48.260;8.928;2023-04-25T07:10:08;5.63;;;2.17;;
1725;SDS011;41776;48.260;8.928;2023-04-25T07:12:35;5.37;;;2.07;;
1725;SDS011;41776;48.260;8.928;2023-04-25T07:15:01;4.00;;;2.00;;
1725;SDS011;41776;48.260;8.928;2023-04-25T07:17:31;6.37;;;2.37;;
1725;SDS011;41776;48.260;8.928;2023-04-25T07:19:58;5.77;;;2.00;;
1725;SDS011;41776;48.260;8.928;2023-04-25T07:22:26;8.10;;;2.13;;
1725;SDS011;41776;48.260;8.928;2023-04-25T07:24:52;5.00;;;2.10;;
1725;SDS011;41776;48.260;8.928;2023-04-25T07:27:19;12.33;;;4.60;;
1725;SDS011;41776;48.260;8.928;2023-04-25T07:29:45;20.70;;;9.80;;
1725;SDS011;41776;48.260;8.928;2023-04-25T07:32:12;10.10;;;4.17;;
1725;SDS011;41776;48.260;8.928;2023-04-25T07:34:41;6.67;;;2.77;;
1725;SDS011;41776;48.260;8.928;2023-04-25T07:37:08;6.77;;;2.30;;
1725;SDS011;41776;48.260;8.928;2023-04-25T07:39:36;7.93;;;2.73;;
1725;SDS011;41776;48.260;8.928;2023-04-25T07:42:06;5.10;;;2.60;;
1725;SDS011;41776;48.260;8.928;2023-04-25T07:44:33;5.73;;;1.83;;
1725;SDS011;41776;48.260;8.928;2023-04-25T07:47:03;8.93;;;2.47;;
1725;SDS011;41776;48.260;8.928;2023-04-25T07:49:30;8.73;;;2.57;;
1725;SDS011;41776;48.260;8.928;2023-04-25T07:51:57;6.20;;;2.73;;
1725;SDS011;41776;48.260;8.928;2023-04-25T07:54:23;8.80;;;2.50;;
1725;SDS011;41776;48.260;8.928;2023-04-25T07:56:51;6.13;;;2.57;;
1725;SDS011;41776;48.260;8.928;2023-04-25T07:59:18;7.53;;;2.00;;
1725;SDS011;41776;48.260;8.928;2023-04-25T08:01:44;4.17;;;2.20;;
1725;SDS011;41776;48.260;8.928;2023-04-25T08:04:11;6.37;;;2.67;;
1725;SDS011;41776;48.260;8.928;2023-04-25T08:06:37;4.77;;;2.30;;
1725;SDS011;41776;48.260;8.928;2023-04-25T08:09:04;5.40;;;2.57;;
1725;SDS011;41776;48.260;8.928;2023-04-25T08:11:30;3.83;;;2.47;;
1725;SDS011;41776;48.260;8.928;2023-04-25T08:13:58;3.47;;;2.10;;
1725;SDS011;41776;48.260;8.928;2023-04-25T08:16:25;7.10;;;2.40;;
1725;SDS011;41776;48.260;8.928;2023-04-25T08:18:51;6.60;;;2.60;;
1725;SDS011;41776;48.260;8.928;2023-04-25T08:21:18;6.30;;;2.50;;
1725;SDS011;41776;48.260;8.928;2023-04-25T08:23:44;4.93;;;2.50;;
1725;SDS011;41776;48.260;8.928;2023-04-25T08:26:11;7.93;;;2.77;;
1725;SDS011;41776;48.260;8.928;2023-04-25T08:28:37;6.53;;;3.13;;
1725;SDS011;41776;48.260;8.928;2023-04-25T08:31:05;5.40;;;2.40;;
1725;SDS011;41776;48.260;8.928;2023-04-25T08:33:32;3.67;;;2.10;;
1725;SDS011;41776;48.260;8.928;2023-04-25T08:35:59;3.97;;;1.83;;
1725;SDS011;41776;48.260;8.928;2023-04-25T08:38:25;3.63;;;1.93;;
1725;SDS011;41776;48.260;8.928;2023-04-25T08:40:52;2.77;;;1.80;;
1725;SDS011;41776;48.260;8.928;2023-04-25T08:43:20;5.97;;;2.00;;
1725;SDS011;41776;48.260;8.928;2023-04-25T08:45:47;3.57;;;1.90;;
1725;SDS011;41776;48.260;8.928;2023-04-25T08:48:18;2.67;;;1.80;;
1725;SDS011;41776;48.260;8.928;2023-04-25T08:50:45;3.93;;;2.13;;
1725;SDS011;41776;48.260;8.928;2023-04-25T08:53:16;4.40;;;1.60;;
1725;SDS011;41776;48.260;8.928;2023-04-25T08:55:45;2.73;;;1.87;;
1725;SDS011;41776;48.260;8.928;2023-04-25T08:58:12;2.17;;;1.80;;
1725;SDS011;41776;48.260;8.928;2023-04-25T09:00:39;2.33;;;1.90;;
1725;SDS011;41776;48.260;8.928;2023-04-25T09:03:06;5.17;;;3.30;;
1725;SDS011;41776;48.260;8.928;2023-04-25T09:05:36;2.17;;;1.70;;
1725;SDS011;41776;48.260;8.928;2023-04-25T09:08:03;5.20;;;1.93;;
1725;SDS011;41776;48.260;8.928;2023-04-25T09:10:29;2.97;;;1.90;;
1725;SDS011;41776;48.260;8.928;2023-04-25T09:13:03;4.70;;;2.47;;
1725;SDS011;41776;48.260;8.928;2023-04-25T09:15:31;5.23;;;2.00;;
1725;SDS011;41776;48.260;8.928;2023-04-25T09:17:58;2.73;;;1.80;;
1725;SDS011;41776;48.260;8.928;2023-04-25T09:20:26;2.53;;;1.70;;
1725;SDS011;41776;48.260;8.928;2023-04-25T09:23:03;3.03;;;2.00;;
1725;SDS011;41776;48.260;8.928;2023-04-25T09:25:35;5.37;;;2.37;;
1725;SDS011;41776;48.260;8.928;2023-04-25T09:28:04;4.73;;;2.10;;
1725;SDS011;41776;48.260;8.928;2023-04-25T09:30:32;2.63;;;2.20;;
1725;SDS011;41776;48.260;8.928;2023-04-25T09:33:03;2.60;;;1.93;;
1725;SDS011;41776;48.260;8.928;2023-04-25T09:35:30;5.50;;;2.20;;
1725;SDS011;41776;48.260;8.928;2023-04-25T09:38:03;3.03;;;1.90;;
1725;SDS011;41776;48.260;8.928;2023-04-25T09:40:33;3.67;;;2.13;;
1725;SDS011;41776;48.260;8.928;2023-04-25T09:43:01;3.57;;;2.00;;
1725;SDS011;41776;48.260;8.928;2023-04-25T09:45:29;2.60;;;1.70;;
1725;SDS011;41776;48.260;8.928;2023-04-25T09:47:56;3.10;;;1.97;;
1725;SDS011;41776;48.260;8.928;2023-04-25T09:50:22;2.07;;;1.53;;
1725;SDS011;41776;48.260;8.928;2023-04-25T09:53:01;3.73;;;1.70;;
1725;SDS011;41776;48.260;8.928;2023-04-25T09:55:31;2.93;;;2.00;;
1725;SDS011;41776;48.260;8.928;2023-04-25T09:57:58;4.13;;;2.00;;
1725;SDS011;41776;48.260;8.928;2023-04-25T10:00:32;2.53;;;1.80;;
1725;SDS011;41776;48.260;8.928;2023-04-25T10:03:00;1.93;;;1.43;;
1725;SDS011;41776;48.260;8.928;2023-04-25T10:05:29;2.50;;;1.80;;
1725;SDS011;41776;48.260;8.928;2023-04-25T10:07:58;1.83;;;1.67;;
1725;SDS011;41776;48.260;8.928;2023-04-25T10:10:27;3.47;;;1.83;;
1725;SDS011;41776;48.260;8.928;2023-04-25T10:12:57;6.47;;;4.13;;
1725;SDS011;41776;48.260;8.928;2023-04-25T10:15:24;9.00;;;4.87;;
1725;SDS011;41776;48.260;8.928;2023-04-25T10:17:51;4.87;;;3.30;;
1725;SDS011;41776;48.260;8.928;2023-04-25T10:20:18;2.37;;;2.17;;
1725;SDS011;41776;48.260;8.928;2023-04-25T10:22:46;2.43;;;2.00;;
1725;SDS011;41776;48.260;8.928;2023-04-25T10:25:15;1.47;;;1.37;;
1725;SDS011;41776;48.260;8.928;2023-04-25T10:27:44;5.87;;;1.30;;
1725;SDS011;41776;48.260;8.928;2023-04-25T10:30:14;0.90;;;0.90;;
1725;SDS011;41776;48.260;8.928;2023-04-25T10:32:41;0.90;;;0.90;;
1725;SDS011;41776;48.260;8.928;2023-04-25T10:35:12;1.40;;;1.30;;
1725;SDS011;41776;48.260;8.928;2023-04-25T10:37:57;0.77;;;0.77;;
1725;SDS011;41776;48.260;8.928;2023-04-25T10:40:24;0.60;;;0.60;;
1725;SDS011;41776;48.260;8.928;2023-04-25T10:42:54;0.70;;;0.70;;
1725;SDS011;41776;48.260;8.928;2023-04-25T10:45:21;0.60;;;0.60;;
1725;SDS011;41776;48.260;8.928;2023-04-25T10:47:48;0.60;;;0.60;;
1725;SDS011;41776;48.260;8.928;2023-04-25T10:50:15;0.70;;;0.70;;
1725;SDS011;41776;48.260;8.928;2023-04-25T10:52:42;0.60;;;0.60;;
1725;SDS011;41776;48.260;8.928;2023-04-25T10:55:09;0.50;;;0.50;;
1725;SDS011;41776;48.260;8.928;2023-04-25T10:57:36;0.40;;;0.40;;
1725;SDS011;41776;48.260;8.928;2023-04-25T11:00:15;0.40;;;0.40;;
1725;SDS011;41776;48.260;8.928;2023-04-25T11:02:44;0.70;;;0.70;;
1725;SDS011;41776;48.260;8.928;2023-04-25T11:05:16;0.50;;;0.50;;
1725;SDS011;41776;48.260;8.928;2023-04-25T11:07:49;0.50;;;0.50;;
1725;SDS011;41776;48.260;8.928;2023-04-25T11:10:17;0.40;;;0.40;;
1725;SDS011;41776;48.260;8.928;2023-04-25T11:12:44;0.80;;;0.80;;
1725;SDS011;41776;48.260;8.928;2023-04-25T11:15:13;4.83;;;3.57;;
1725;SDS011;41776;48.260;8.928;2023-04-25T11:17:40;1.47;;;1.10;;
1725;SDS011;41776;48.260;8.928;2023-04-25T11:20:08;0.80;;;0.80;;
1725;SDS011;41776;48.260;8.928;2023-04-25T11:22:37;0.80;;;0.80;;
1725;SDS011;41776;48.260;8.928;2023-04-25T11:25:05;0.70;;;0.70;;
1725;SDS011;41776;48.260;8.928;2023-04-25T11:27:32;0.77;;;0.70;;
1725;SDS011;41776;48.260;8.928;2023-04-25T11:30:09;0.80;;;0.80;;
1725;SDS011;41776;48.260;8.928;2023-04-25T11:32:37;1.10;;;0.80;;
1725;SDS011;41776;48.260;8.928;2023-04-25T11:35:06;1.10;;;0.70;;
1725;SDS011;41776;48.260;8.928;2023-04-25T11:37:33;0.80;;;0.80;;
1725;SDS011;41776;48.260;8.928;2023-04-25T11:39:59;0.83;;;0.83;;
1725;SDS011;41776;48.260;8.928;2023-04-25T11:42:26;1.30;;;0.80;;
1725;SDS011;41776;48.260;8.928;2023-04-25T11:44:53;1.07;;;0.70;;
1725;SDS011;41776;48.260;8.928;2023-04-25T11:47:19;1.27;;;1.03;;
1725;SDS011;41776;48.260;8.928;2023-04-25T11:49:47;1.00;;;0.90;;
1725;SDS011;41776;48.260;8.928;2023-04-25T11:52:15;0.70;;;0.70;;
1725;SDS011;41776;48.260;8.928;2023-04-25T11:54:41;1.17;;;0.90;;
1725;SDS011;41776;48.260;8.928;2023-04-25T11:57:11;1.03;;;0.97;;
1725;SDS011;41776;48.260;8.928;2023-04-25T11:59:37;0.70;;;0.70;;
1725;SDS011;41776;48.260;8.928;2023-04-25T12:02:04;1.30;;;0.83;;
1725;SDS011;41776;48.260;8.928;2023-04-25T12:04:32;1.00;;;0.90;;
1725;SDS011;41776;48.260;8.928;2023-04-25T12:06:59;0.60;;;0.60;;
1725;SDS011;41776;48.260;8.928;2023-04-25T12:09:27;1.17;;;0.90;;
1725;SDS011;41776;48.260;8.928;2023-04-25T12:11:55;0.60;;;0.60;;
1725;SDS011;41776;48.260;8.928;2023-04-25T12:14:28;0.97;;;0.70;;
1725;SDS011;41776;48.260;8.928;2023-04-25T12:16:56;0.70;;;0.70;;
1725;SDS011;41776;48.260;8.928;2023-04-25T12:19:25;0.63;;;0.63;;
1725;SDS011;41776;48.260;8.928;2023-04-25T12:21:57;0.70;;;0.70;;
1725;SDS011;41776;48.260;8.928;2023-04-25T12:24:25;0.77;;;0.77;;
1725;SDS011;41776;48.260;8.928;2023-04-25T12:26:53;0.60;;;0.60;;
1725;SDS011;41776;48.260;8.928;2023-04-25T12:29:26;1.77;;;0.70;;
1725;SDS011;41776;48.260;8.928;2023-04-25T12:31:54;1.93;;;1.27;;
1725;SDS011;41776;48.260;8.928;2023-04-25T12:34:21;1.53;;;1.20;;
1725;SDS011;41776;48.260;8.928;2023-04-25T12:36:49;1.43;;;1.10;;
1725;SDS011;41776;48.260;8.928;2023-04-25T12:39:16;1.37;;;0.93;;
1725;SDS011;41776;48.260;8.928;2023-04-25T12:41:44;3.17;;;1.10;;
1725;SDS011;41776;48.260;8.928;2023-04-25T12:44:12;1.33;;;1.13;;
1725;SDS011;41776;48.260;8.928;2023-04-25T12:46:39;1.80;;;1.30;;
1725;SDS011;41776;48.260;8.928;2023-04-25T12:49:06;3.17;;;1.30;;
1725;SDS011;41776;48.260;8.928;2023-04-25T12:51:33;0.80;;;0.80;;
1725;SDS011;41776;48.260;8.928;2023-04-25T12:54:00;1.30;;;0.97;;
1725;SDS011;41776;48.260;8.928;2023-04-25T12:56:27;0.80;;;0.80;;
1725;SDS011;41776;48.260;8.928;2023-04-25T12:58:55;0.80;;;0.73;;
1725;SDS011;41776;48.260;8.928;2023-04-25T13:01:22;3.97;;;0.80;;
1725;SDS011;41776;48.260;8.928;2023-04-25T13:03:49;1.40;;;1.00;;
1725;SDS011;41776;48.260;8.928;2023-04-25T13:06:16;0.90;;;0.80;;
1725;SDS011;41776;48.260;8.928;2023-04-25T13:08:43;1.83;;;1.00;;
1725;SDS011;41776;48.260;8.928;2023-04-25T13:11:09;1.57;;;1.40;;
1725;SDS011;41776;48.260;8.928;2023-04-25T13:13:36;2.70;;;1.20;;
1725;SDS011;41776;48.260;8.928;2023-04-25T13:16:06;1.87;;;1.10;;
1725;SDS011;41776;48.260;8.928;2023-04-25T13:18:33;2.43;;;1.33;;
1725;SDS011;41776;48.260;8.928;2023-04-25T13:21:00;2.30;;;1.30;;
1725;SDS011;41776;48.260;8.928;2023-04-25T13:23:27;1.73;;;1.43;;
1725;SDS011;41776;48.260;8.928;2023-04-25T13:25:55;2.27;;;1.67;;
1725;SDS011;41776;48.260;8.928;2023-04-25T13:28:22;2.90;;;1.50;;
1725;SDS011;41776;48.260;8.928;2023-04-25T13:30:49;2.90;;;1.90;;
1725;SDS011;41776;48.260;8.928;2023-04-25T13:33:17;2.70;;;1.95;;
1725;SDS011;41776;48.260;8.928;2023-04-25T13:35:45;2.47;;;1.73;;
1725;SDS011;41776;48.260;8.928;2023-04-25T13:38:18;2.87;;;1.60;;
1725;SDS011;41776;48.260;8.928;2023-04-25T13:40:45;2.37;;;1.63;;
1725;SDS011;41776;48.260;8.928;2023-04-25T13:43:11;2.10;;;1.40;;
1725;SDS011;41776;48.260;8.928;2023-04-25T13:45:38;2.10;;;1.50;;
1725;SDS011;41776;48.260;8.928;2023-04-25T13:48:05;2.10;;;1.70;;
1725;SDS011;41776;48.260;8.928;2023-04-25T13:50:33;3.43;;;2.73;;
1725;SDS011;41776;48.260;8.928;2023-04-25T13:53:00;1.00;;;0.90;;
1725;SDS011;41776;48.260;8.928;2023-04-25T13:55:26;0.70;;;0.70;;
1725;SDS011;41776;48.260;8.928;2023-04-25T13:57:53;0.73;;;0.60;;
1725;SDS011;41776;48.260;8.928;2023-04-25T14:00:19;0.50;;;0.50;;
1725;SDS011;41776;48.260;8.928;2023-04-25T14:02:46;0.70;;;0.60;;
1725;SDS011;41776;48.260;8.928;2023-04-25T14:05:12;0.70;;;0.50;;
1725;SDS011;41776;48.260;8.928;2023-04-25T14:07:40;0.60;;;0.60;;
1725;SDS011;41776;48.260;8.928;2023-04-25T14:10:07;0.40;;;0.40;;
1725;SDS011;41776;48.260;8.928;2023-04-25T14:12:34;0.50;;;0.50;;
1725;SDS011;41776;48.260;8.928;2023-04-25T14:15:00;0.40;;;0.40;;
1725;SDS011;41776;48.260;8.928;2023-04-25T14:17:27;0.40;;;0.40;;
1725;SDS011;41776;48.260;8.928;2023-04-25T14:19:53;0.40;;;0.40;;
1725;SDS011;41776;48.260;8.928;2023-04-25T14:22:19;0.30;;;0.30;;
1725;SDS011;41776;48.260;8.928;2023-04-25T14:24:47;0.40;;;0.40;;
1725;SDS011;41776;48.260;8.928;2023-04-25T14:27:14;0.43;;;0.43;;
1725;SDS011;41776;48.260;8.928;2023-04-25T14:29:40;0.40;;;0.40;;
1725;SDS011;41776;48.260;8.928;2023-04-25T14:32:07;0.47;;;0.47;;
1725;SDS011;41776;48.260;8.928;2023-04-25T14:34:33;0.80;;;0.70;;
1725;SDS011;41776;48.260;8.928;2023-04-25T14:37:00;0.60;;;0.60;;
1725;SDS011;41776;48.260;8.928;2023-04-25T14:39:26;0.83;;;0.50;;
1725;SDS011;41776;48.260;8.928;2023-04-25T14:41:54;0.60;;;0.60;;
1725;SDS011;41776;48.260;8.928;2023-04-25T14:44:21;0.67;;;0.67;;
1725;SDS011;41776;48.260;8.928;2023-04-25T14:46:47;0.80;;;0.80;;
1725;SDS011;41776;48.260;8.928;2023-04-25T14:49:16;0.60;;;0.60;;
1725;SDS011;41776;48.260;8.928;2023-04-25T14:51:43;0.50;;;0.50;;
1725;SDS011;41776;48.260;8.928;2023-04-25T14:54:09;0.70;;;0.70;;
1725;SDS011;41776;48.260;8.928;2023-04-25T14:56:37;0.60;;;0.50;;
1725;SDS011;41776;48.260;8.928;2023-04-25T14:59:04;1.03;;;0.40;;
1725;SDS011;41776;48.260;8.928;2023-04-25T15:01:31;0.90;;;0.80;;